createdAt,value
2022-10-14T00:02:13.898Z,78.00
2022-10-14T00:04:40.941Z,78.10
2022-10-14T00:07:07.947Z,78.00
2022-10-14T00:09:34.996Z,78.00
2022-10-14T00:12:01.832Z,78.00
2022-10-14T00:14:28.648Z,78.10
2022-10-14T00:16:56.452Z,78.10
2022-10-14T00:22:14.617Z,78.10
2022-10-14T00:24:41.493Z,78.00
2022-10-14T00:27:09.192Z,78.00
2022-10-14T00:29:36.213Z,78.00
2022-10-14T00:32:03.075Z,78.00
2022-10-14T00:34:30.719Z,78.00
2022-10-14T00:37:00.027Z,78.00
2022-10-14T00:39:27.211Z,78.00
2022-10-14T00:41:54.086Z,78.00
2022-10-14T00:44:20.986Z,78.00
2022-10-14T00:47:13.350Z,78.00
2022-10-14T00:49:43.648Z,78.10
2022-10-14T00:52:19.106Z,78.10
2022-10-14T00:54:55.376Z,78.20
2022-10-14T00:57:25.224Z,78.20
2022-10-14T01:00:01.931Z,78.20
2022-10-14T01:02:29.513Z,78.10
2022-10-14T01:04:56.609Z,78.50
2022-10-14T01:08:02.834Z,77.90
2022-10-14T01:10:49.529Z,78.10
2022-10-14T01:13:32.971Z,78.00
2022-10-14T01:16:16.871Z,78.10
2022-10-14T01:19:41.824Z,78.10
2022-10-14T01:22:31.205Z,78.00
2022-10-14T01:25:12.972Z,78.00
2022-10-14T01:28:01.351Z,77.90
2022-10-14T01:30:44.847Z,77.90
2022-10-14T01:33:51.340Z,77.90
2022-10-14T01:36:38.964Z,77.90
2022-10-14T01:39:12.664Z,77.90
2022-10-14T01:41:49.032Z,78.00
2022-10-14T01:44:18.667Z,78.00
2022-10-14T01:46:52.241Z,78.30
2022-10-14T01:49:32.604Z,77.90
2022-10-14T01:52:09.887Z,78.00
2022-10-14T01:54:43.111Z,78.10
2022-10-14T01:57:22.414Z,78.20
2022-10-14T01:59:52.243Z,78.30
2022-10-14T02:02:20.096Z,78.40
2022-10-14T02:04:47.252Z,78.50
2022-10-14T02:07:27.836Z,78.80
2022-10-14T02:10:24.527Z,78.90
2022-10-14T02:13:16.949Z,79.00
2022-10-14T02:16:38.578Z,78.90
2022-10-14T02:19:28.290Z,79.10
2022-10-14T02:22:39.926Z,79.10
2022-10-14T02:25:36.318Z,78.90
2022-10-14T02:28:07.869Z,78.80
2022-10-14T02:30:42.481Z,78.80
2022-10-14T02:33:10.175Z,78.80
2022-10-14T02:35:38.671Z,78.80
2022-10-14T02:38:07.748Z,78.80
2022-10-14T02:40:43.691Z,78.80
2022-10-14T02:43:12.307Z,78.90
2022-10-14T02:45:42.274Z,78.90
2022-10-14T02:48:10.565Z,79.00
2022-10-14T02:50:38.346Z,79.10
2022-10-14T02:53:05.210Z,79.20
2022-10-14T02:55:32.143Z,79.40
2022-10-14T02:58:00.093Z,79.60
2022-10-14T03:00:27.220Z,79.80
2022-10-14T03:02:56.253Z,80.00
2022-10-14T03:05:24.941Z,80.20
2022-10-14T03:07:53.810Z,80.30
2022-10-14T03:10:22.393Z,80.50
2022-10-14T03:12:49.649Z,80.60
2022-10-14T03:15:25.606Z,80.60
2022-10-14T03:17:53.280Z,80.70
2022-10-14T03:20:24.729Z,80.60
2022-10-14T03:22:56.390Z,80.60
2022-10-14T03:25:24.093Z,80.70
2022-10-14T03:28:02.363Z,80.70
2022-10-14T03:30:58.415Z,80.60
2022-10-14T03:33:40.660Z,80.60
2022-10-14T03:36:12.130Z,80.60
2022-10-14T03:38:49.790Z,80.60
2022-10-14T03:41:39.931Z,80.50
2022-10-14T03:44:08.192Z,80.40
2022-10-14T03:46:37.843Z,80.30
2022-10-14T03:49:05.531Z,80.30
2022-10-14T03:51:33.051Z,80.10
2022-10-14T03:54:13.586Z,79.90
2022-10-14T03:56:40.428Z,79.70
2022-10-14T03:59:08.302Z,79.40
2022-10-14T04:01:36.728Z,79.30
2022-10-14T04:04:15.914Z,79.40
2022-10-14T04:06:42.773Z,79.20
2022-10-14T04:09:10.183Z,79.10
2022-10-14T04:11:40.131Z,79.10
2022-10-14T04:14:10.649Z,79.10
2022-10-14T04:16:49.696Z,79.10
2022-10-14T04:19:18.018Z,79.10
2022-10-14T04:21:45.527Z,79.00
2022-10-14T04:24:13.043Z,78.90
2022-10-14T04:26:52.526Z,78.80
2022-10-14T04:29:44.254Z,78.80
2022-10-14T04:32:17.526Z,78.60
2022-10-14T04:34:44.997Z,78.50
2022-10-14T04:37:15.325Z,78.50
2022-10-14T04:39:55.485Z,78.60
2022-10-14T04:42:23.306Z,78.70
2022-10-14T04:44:54.700Z,78.80
2022-10-14T04:47:30.918Z,78.80
2022-10-14T04:50:02.426Z,78.90
2022-10-14T04:52:31.793Z,79.00
2022-10-14T04:55:08.572Z,79.10
2022-10-14T04:57:43.280Z,79.20
2022-10-14T05:00:12.665Z,79.20
2022-10-14T05:02:52.565Z,79.20
2022-10-14T05:05:22.103Z,79.20
2022-10-14T05:07:53.619Z,79.20
2022-10-14T05:10:29.004Z,79.30
2022-10-14T05:12:56.767Z,79.40
2022-10-14T05:15:27.361Z,79.40
2022-10-14T05:18:04.920Z,79.50
2022-10-14T05:20:47.026Z,79.50
2022-10-14T05:23:14.282Z,79.60
2022-10-14T05:25:43.090Z,79.50
2022-10-14T05:28:10.543Z,79.60
2022-10-14T05:30:39.270Z,79.50
2022-10-14T05:33:09.150Z,79.70
2022-10-14T05:35:57.606Z,79.60
2022-10-14T05:38:34.176Z,79.50
2022-10-14T05:41:02.080Z,79.50
2022-10-14T05:43:32.403Z,79.40
2022-10-14T05:46:03.354Z,79.30
2022-10-14T05:48:35.289Z,79.40
2022-10-14T05:51:03.392Z,79.40
2022-10-14T05:53:32.721Z,79.50
2022-10-14T05:56:09.093Z,79.40
2022-10-14T05:58:38.795Z,79.50
2022-10-14T06:01:10.772Z,79.40
2022-10-14T06:03:41.148Z,79.50
2022-10-14T06:06:14.182Z,79.40
2022-10-14T06:08:42.061Z,79.40
2022-10-14T06:11:09.658Z,79.20
2022-10-14T06:13:36.579Z,79.20
2022-10-14T06:16:06.453Z,79.10
2022-10-14T06:18:34.853Z,79.10
2022-10-14T06:21:27.232Z,79.00
2022-10-14T06:23:54.539Z,78.90
2022-10-14T06:26:21.564Z,78.90
2022-10-14T06:28:48.612Z,78.80
2022-10-14T06:31:15.621Z,78.70
2022-10-14T06:33:44.017Z,78.80
2022-10-14T06:36:12.097Z,79.60
2022-10-14T06:38:39.286Z,78.90
2022-10-14T06:41:06.861Z,78.90
2022-10-14T06:43:35.315Z,78.90
2022-10-14T06:46:28.051Z,78.90
2022-10-14T06:48:55.129Z,78.80
2022-10-14T06:51:22.203Z,78.70
2022-10-14T06:53:49.117Z,78.70
2022-10-14T06:56:16.074Z,78.60
2022-10-14T06:58:43.092Z,78.60
2022-10-14T07:01:10.104Z,78.70
2022-10-14T07:03:39.148Z,78.70
2022-10-14T07:06:07.781Z,78.70
2022-10-14T07:08:35.010Z,78.50
2022-10-14T07:11:02.632Z,78.40
2022-10-14T07:13:29.860Z,78.40
2022-10-14T07:15:56.725Z,78.40
2022-10-14T07:18:23.914Z,78.50
2022-10-14T07:20:50.821Z,78.50
2022-10-14T07:23:17.705Z,78.50
2022-10-14T07:25:44.746Z,78.50
2022-10-14T07:28:11.981Z,78.50
2022-10-14T07:30:39.147Z,78.40
2022-10-14T07:33:05.970Z,78.30
2022-10-14T07:35:33.114Z,78.20
2022-10-14T07:38:00.209Z,78.10
2022-10-14T07:40:28.037Z,78.10
2022-10-14T07:42:54.956Z,78.10
2022-10-14T07:45:21.932Z,78.10
2022-10-14T07:47:51.440Z,77.80
2022-10-14T07:50:20.106Z,77.60
2022-10-14T07:52:47.148Z,77.40
2022-10-14T07:55:14.076Z,78.00
2022-10-14T07:57:41.033Z,77.00
2022-10-14T08:00:09.368Z,76.60
2022-10-14T08:02:38.985Z,76.20
2022-10-14T08:05:36.669Z,76.10
2022-10-14T08:07:53.634Z,76.10
2022-10-14T08:10:24.102Z,76.30
2022-10-14T08:12:51.856Z,76.40
2022-10-14T08:15:19.101Z,76.20
2022-10-14T08:17:46.352Z,76.10
2022-10-14T08:20:13.348Z,75.90
2022-10-14T08:22:40.343Z,75.60
2022-10-14T08:25:07.799Z,75.40
2022-10-14T08:27:36.565Z,74.90
2022-10-14T08:30:10.209Z,74.70
2022-10-14T08:32:38.894Z,74.50
2022-10-14T08:35:06.565Z,74.30
2022-10-14T08:37:33.357Z,73.80
2022-10-14T08:40:00.618Z,73.40
2022-10-14T08:42:37.201Z,72.60
2022-10-14T08:45:22.422Z,71.70
2022-10-14T08:47:56.961Z,72.80
2022-10-14T08:50:39.569Z,73.00
2022-10-14T08:53:14.117Z,71.50
2022-10-14T08:55:54.703Z,71.50
2022-10-14T08:58:35.103Z,70.60
2022-10-14T09:01:32.801Z,68.40
2022-10-14T09:04:06.623Z,65.60
2022-10-14T09:06:41.631Z,65.20
2022-10-14T09:09:54.362Z,61.70
2022-10-14T09:12:28.831Z,58.50
2022-10-14T09:15:16.681Z,58.10
2022-10-14T09:17:55.760Z,55.80
2022-10-14T09:20:25.449Z,53.90
2022-10-14T09:23:10.422Z,52.10
2022-10-14T09:25:40.275Z,49.50
2022-10-14T09:28:09.106Z,49.40
2022-10-14T09:30:38.959Z,48.30
2022-10-14T09:33:06.728Z,46.90
2022-10-14T09:35:42.306Z,45.70
2022-10-14T09:38:12.144Z,43.50
2022-10-14T09:40:49.939Z,43.30
2022-10-14T09:44:25.713Z,41.80
2022-10-14T09:46:58.368Z,41.90
2022-10-14T09:49:42.632Z,41.10
2022-10-14T09:52:24.710Z,39.80
2022-10-14T09:54:57.403Z,39.20
2022-10-14T09:57:29.932Z,39.70
2022-10-14T10:00:06.394Z,40.60
2022-10-14T10:02:44.980Z,39.70
2022-10-14T10:05:25.916Z,39.10
2022-10-14T10:08:07.684Z,37.90
2022-10-14T10:10:35.583Z,38.20
2022-10-14T10:13:03.910Z,38.80
2022-10-14T10:15:30.814Z,38.70
2022-10-14T10:17:57.753Z,38.10
2022-10-14T10:20:31.809Z,38.50
2022-10-14T10:23:25.646Z,38.50
2022-10-14T10:25:53.193Z,37.20
2022-10-14T10:28:31.483Z,38.30
2022-10-14T10:31:47.444Z,37.80
2022-10-14T10:34:54.664Z,37.60
2022-10-14T10:37:28.587Z,37.10
2022-10-14T10:40:12.671Z,37.60
2022-10-14T10:42:58.746Z,37.30
2022-10-14T10:45:41.650Z,37.40
2022-10-14T10:48:31.164Z,37.60
2022-10-14T10:51:09.912Z,37.80
2022-10-14T10:54:02.780Z,38.10
2022-10-14T10:56:42.872Z,38.50
2022-10-14T11:00:07.830Z,38.60
2022-10-14T11:03:49.197Z,38.50
2022-10-14T11:10:42.108Z,39.10
2022-10-14T11:13:41.938Z,39.40
2022-10-14T11:16:55.530Z,39.70
2022-10-14T11:19:33.601Z,39.80
2022-10-14T11:22:43.879Z,40.20
2022-10-14T11:25:25.502Z,40.60
2022-10-14T11:28:10.307Z,40.40
2022-10-14T11:31:06.773Z,40.50
2022-10-14T11:33:46.085Z,40.80
2022-10-14T11:36:35.389Z,41.20
2022-10-14T11:39:39.372Z,41.80
2022-10-14T11:42:35.127Z,42.40
2022-10-14T11:45:21.165Z,43.10
2022-10-14T11:48:10.827Z,43.40
2022-10-14T11:50:42.401Z,43.80
2022-10-14T11:53:39.667Z,44.10
2022-10-14T11:56:46.458Z,44.50
2022-10-14T11:59:40.030Z,44.60
2022-10-14T12:02:39.886Z,44.90
2022-10-14T12:05:41.302Z,45.30
2022-10-14T12:08:25.841Z,45.60
2022-10-14T12:11:13.610Z,46.20
2022-10-14T12:13:52.286Z,46.50
2022-10-14T12:16:22.504Z,46.90
2022-10-14T12:18:55.306Z,46.80
2022-10-14T12:21:52.677Z,47.10
2022-10-14T12:24:26.556Z,47.00
2022-10-14T12:26:57.820Z,46.80
2022-10-14T12:29:41.454Z,46.90
2022-10-14T12:32:28.093Z,47.20
2022-10-14T12:35:02.891Z,47.30
2022-10-14T12:37:35.179Z,47.50
2022-10-14T12:40:02.736Z,48.00
2022-10-14T12:42:39.079Z,48.30
2022-10-14T12:45:22.888Z,48.90
2022-10-14T12:48:27.468Z,49.10
2022-10-14T12:51:13.175Z,49.50
2022-10-14T12:53:51.682Z,49.70
2022-10-14T12:56:54.997Z,49.90
2022-10-14T12:59:36.424Z,50.20
2022-10-14T13:02:28.274Z,50.30
2022-10-14T13:04:55.827Z,50.60
2022-10-14T13:07:39.701Z,50.80
2022-10-14T13:10:27.368Z,51.00
2022-10-14T13:12:54.314Z,51.20
2022-10-14T13:15:51.742Z,50.80
2022-10-14T13:18:31.027Z,51.20
2022-10-14T13:20:58.246Z,51.10
2022-10-14T13:23:50.446Z,51.20
2022-10-14T13:26:43.681Z,51.00
2022-10-14T13:29:17.679Z,50.50
2022-10-14T13:32:21.321Z,50.40
2022-10-14T13:35:26.623Z,50.30
2022-10-14T13:38:00.340Z,50.00
2022-10-14T13:40:35.222Z,49.90
2022-10-14T13:43:12.719Z,49.90
2022-10-14T13:45:45.352Z,49.50
2022-10-14T13:48:22.552Z,49.30
2022-10-14T13:50:54.162Z,49.00
2022-10-14T13:53:25.703Z,48.90
2022-10-14T13:55:54.730Z,49.20
2022-10-14T13:58:24.154Z,49.20
2022-10-14T14:01:00.270Z,48.90
2022-10-14T14:03:53.541Z,48.90
2022-10-14T14:06:23.172Z,48.90
2022-10-14T14:09:03.373Z,48.90
2022-10-14T14:11:34.696Z,48.60
2022-10-14T14:14:42.525Z,48.20
2022-10-14T14:17:31.066Z,48.20
2022-10-14T14:19:58.473Z,48.20
2022-10-14T14:22:30.775Z,48.30
2022-10-14T14:25:34.841Z,48.30
2022-10-14T14:28:15.290Z,48.40
2022-10-14T14:30:54.883Z,48.60
2022-10-14T14:33:48.792Z,48.70
2022-10-14T14:36:27.912Z,49.10
2022-10-14T14:39:06.276Z,49.20
2022-10-14T14:41:33.483Z,49.50
2022-10-14T14:46:59.154Z,50.10
2022-10-14T14:49:35.075Z,50.40
2022-10-14T14:52:04.131Z,50.60
2022-10-14T14:54:31.559Z,50.80
2022-10-14T14:57:07.447Z,51.10
2022-10-14T14:59:39.031Z,51.30
2022-10-14T15:02:16.088Z,51.50
2022-10-14T15:04:48.016Z,52.00
2022-10-14T15:07:21.501Z,52.10
2022-10-14T15:09:58.731Z,52.50
2022-10-14T15:12:39.257Z,52.80
2022-10-14T15:15:22.077Z,52.80
2022-10-14T15:18:24.292Z,52.80
2022-10-14T15:20:52.215Z,52.90
2022-10-14T15:23:50.199Z,52.60
2022-10-14T15:26:35.303Z,52.90
2022-10-14T15:29:08.054Z,53.00
2022-10-14T15:31:37.024Z,52.90
2022-10-14T15:34:05.608Z,53.00
2022-10-14T15:36:34.410Z,53.20
2022-10-14T15:39:02.397Z,53.50
2022-10-14T15:41:30.071Z,53.60
2022-10-14T15:43:57.123Z,53.80
2022-10-14T15:46:42.990Z,54.00
2022-10-14T15:49:26.065Z,54.40
2022-10-14T15:51:53.186Z,54.90
2022-10-14T15:54:27.489Z,54.80
2022-10-14T15:59:28.342Z,55.40
2022-10-14T16:01:55.253Z,55.80
2022-10-14T16:04:27.509Z,55.90
2022-10-14T16:06:56.645Z,56.40
2022-10-14T16:09:27.684Z,56.60
2022-10-14T16:11:58.003Z,56.90
2022-10-14T16:14:27.232Z,57.10
2022-10-14T16:16:54.677Z,57.40
2022-10-14T16:19:21.805Z,57.60
2022-10-14T16:21:50.127Z,57.80
2022-10-14T16:24:20.319Z,58.10
2022-10-14T16:26:51.337Z,58.60
2022-10-14T16:29:20.332Z,58.70
2022-10-14T16:31:51.168Z,59.10
2022-10-14T16:34:21.414Z,59.60
2022-10-14T16:36:50.063Z,59.60
2022-10-14T16:39:19.162Z,59.90
2022-10-14T16:41:46.677Z,60.20
2022-10-14T16:44:24.658Z,60.50
2022-10-14T16:47:16.053Z,61.60
2022-10-14T16:49:49.250Z,61.30
2022-10-14T16:52:18.085Z,62.00
2022-10-14T16:54:45.037Z,62.20
2022-10-14T16:57:12.791Z,62.70
2022-10-14T16:59:40.236Z,63.10
2022-10-14T17:02:16.012Z,63.50
2022-10-14T17:04:46.196Z,63.80
2022-10-14T17:07:15.094Z,64.20
2022-10-14T17:09:42.014Z,64.60
2022-10-14T17:12:14.178Z,65.00
2022-10-14T17:14:41.628Z,65.10
2022-10-14T17:17:10.305Z,65.30
2022-10-14T17:19:38.528Z,65.60
2022-10-14T17:22:05.379Z,65.70
2022-10-14T17:24:32.618Z,66.00
2022-10-14T17:27:03.739Z,66.30
2022-10-14T17:29:31.782Z,66.50
2022-10-14T17:31:58.910Z,66.80
2022-10-14T17:34:28.462Z,67.00
2022-10-14T17:36:59.733Z,67.10
2022-10-14T17:39:29.534Z,67.40
2022-10-14T17:41:57.520Z,67.50
2022-10-14T17:44:24.801Z,67.60
2022-10-14T17:46:51.793Z,67.70
2022-10-14T17:49:18.682Z,67.70
2022-10-14T17:51:45.566Z,67.80
2022-10-14T17:54:12.957Z,67.90
2022-10-14T17:56:41.035Z,68.00
2022-10-14T17:59:12.079Z,68.10
2022-10-14T18:04:26.134Z,68.30
2022-10-14T18:06:54.046Z,68.40
2022-10-14T18:12:12.198Z,68.70
2022-10-14T18:14:40.319Z,68.70
2022-10-14T18:17:07.562Z,68.90
2022-10-14T18:19:35.027Z,69.00
2022-10-14T18:22:04.429Z,69.30
2022-10-14T18:24:32.279Z,69.50
2022-10-14T18:26:59.244Z,69.80
2022-10-14T18:29:26.209Z,69.90
2022-10-14T18:31:53.069Z,70.00
2022-10-14T18:34:22.012Z,70.00
2022-10-14T18:36:49.060Z,70.10
2022-10-14T18:39:16.029Z,70.20
2022-10-14T18:41:43.961Z,70.30
2022-10-14T18:44:11.036Z,70.20
2022-10-14T18:46:39.515Z,70.40
2022-10-14T18:49:09.921Z,70.60
2022-10-14T18:51:39.738Z,70.80
2022-10-14T18:54:16.187Z,70.90
2022-10-14T18:56:44.393Z,71.30
2022-10-14T18:59:17.701Z,71.10
2022-10-14T19:01:45.961Z,71.30
2022-10-14T19:04:15.531Z,71.40
2022-10-14T19:06:45.913Z,71.60
2022-10-14T19:09:13.981Z,72.00
2022-10-14T19:11:41.993Z,72.00
2022-10-14T19:14:09.946Z,72.10
2022-10-14T19:16:38.986Z,72.30
2022-10-14T19:19:16.493Z,72.60
2022-10-14T19:21:46.397Z,73.00
2022-10-14T19:24:13.919Z,73.00
2022-10-14T19:26:44.908Z,73.10
2022-10-14T19:29:15.187Z,73.20
2022-10-14T19:31:43.982Z,73.40
2022-10-14T19:34:15.325Z,73.60
2022-10-14T19:36:43.262Z,73.80
2022-10-14T19:39:15.447Z,73.90
2022-10-14T19:41:47.255Z,74.20
2022-10-14T19:44:39.336Z,74.10
2022-10-14T19:47:06.345Z,74.10
2022-10-14T19:49:33.248Z,74.10
2022-10-14T19:52:00.190Z,74.10
2022-10-14T19:54:27.061Z,74.30
2022-10-14T19:56:54.091Z,74.50
2022-10-14T19:59:21.205Z,74.60
2022-10-14T20:01:48.431Z,74.80
2022-10-14T20:04:15.475Z,74.90
2022-10-14T20:06:44.073Z,75.10
2022-10-14T20:09:14.484Z,75.10
2022-10-14T20:11:42.152Z,75.20
2022-10-14T20:14:09.182Z,75.40
2022-10-14T20:16:36.230Z,75.60
2022-10-14T20:19:03.883Z,75.80
2022-10-14T20:21:31.776Z,76.10
2022-10-14T20:23:59.620Z,76.30
2022-10-14T20:28:58.646Z,76.60
2022-10-14T20:31:25.718Z,76.60
2022-10-14T20:33:52.735Z,76.70
2022-10-14T20:36:21.681Z,77.50
2022-10-14T20:38:49.865Z,76.80
2022-10-14T20:44:15.282Z,76.80
2022-10-14T20:46:42.835Z,76.70
2022-10-14T20:49:09.801Z,76.80
2022-10-14T20:51:36.688Z,76.80
2022-10-14T20:54:06.037Z,76.80
2022-10-14T20:56:36.679Z,76.80
2022-10-14T20:59:07.865Z,76.80
2022-10-14T21:01:36.770Z,76.80
2022-10-14T21:04:07.259Z,76.80
2022-10-14T21:06:35.328Z,76.70
2022-10-14T21:09:02.374Z,76.70
2022-10-14T21:11:29.449Z,76.70
2022-10-14T21:13:59.555Z,76.60
2022-10-14T21:16:36.020Z,76.60
2022-10-14T21:19:07.248Z,76.60
2022-10-14T21:21:39.295Z,76.60
2022-10-14T21:24:08.629Z,76.60
2022-10-14T21:26:35.637Z,76.50
2022-10-14T21:29:03.710Z,76.40
2022-10-14T21:31:31.801Z,76.50
2022-10-14T21:34:05.392Z,76.50
2022-10-14T21:36:34.789Z,76.40
2022-10-14T21:39:09.988Z,76.50
2022-10-14T21:41:38.241Z,76.40
2022-10-14T21:44:06.420Z,76.40
2022-10-14T21:46:34.088Z,76.40
2022-10-14T21:49:01.192Z,76.40
2022-10-14T21:51:30.633Z,76.20
2022-10-14T21:53:57.852Z,76.20
2022-10-14T21:56:25.986Z,76.30
2022-10-14T21:58:53.699Z,76.20
2022-10-14T22:01:24.039Z,76.20
2022-10-14T22:03:57.242Z,76.30
2022-10-14T22:06:25.064Z,76.30
2022-10-14T22:08:56.040Z,76.10
2022-10-14T22:11:32.674Z,76.10
2022-10-14T22:14:03.439Z,76.10
2022-10-14T22:16:30.793Z,76.00
2022-10-14T22:19:00.578Z,75.90
2022-10-14T22:21:30.812Z,75.80
2022-10-14T22:23:58.862Z,75.60
2022-10-14T22:26:28.394Z,75.60
2022-10-14T22:29:08.177Z,75.50
2022-10-14T22:31:35.272Z,75.50
2022-10-14T22:34:05.724Z,75.30
2022-10-14T22:36:35.451Z,75.40
2022-10-14T22:39:09.693Z,75.10
2022-10-14T22:41:36.879Z,75.20
2022-10-14T22:44:05.585Z,75.10
2022-10-14T22:46:35.903Z,75.10
2022-10-14T22:49:03.502Z,75.10
2022-10-14T22:51:34.832Z,75.10
2022-10-14T22:54:02.577Z,75.10
2022-10-14T22:56:30.782Z,74.90
2022-10-14T22:59:06.090Z,74.90
2022-10-14T23:01:33.213Z,75.10
2022-10-14T23:04:00.982Z,74.90
2022-10-14T23:06:29.447Z,75.00
2022-10-14T23:08:57.401Z,75.00
2022-10-14T23:11:25.637Z,75.00
2022-10-14T23:13:53.586Z,75.70
2022-10-14T23:16:26.888Z,75.20
2022-10-14T23:18:54.939Z,74.90
2022-10-14T23:21:28.657Z,74.70
2022-10-14T23:23:59.326Z,74.80
2022-10-14T23:26:31.570Z,74.70
2022-10-14T23:29:00.181Z,74.70
2022-10-14T23:31:33.301Z,74.70
2022-10-14T23:34:03.451Z,74.80
2022-10-14T23:36:30.685Z,75.00
2022-10-14T23:38:58.762Z,74.90
2022-10-14T23:41:26.217Z,74.90
2022-10-14T23:43:54.077Z,75.20
2022-10-14T23:46:21.074Z,75.00
2022-10-14T23:48:55.841Z,75.10
2022-10-14T23:51:35.300Z,75.00
2022-10-14T23:54:02.962Z,74.90
2022-10-14T23:56:29.815Z,74.50
2022-10-14T23:58:56.799Z,74.70
